createdAt,value
2022-12-17T00:00:42.327Z,9.04
2022-12-17T00:05:17.738Z,8.99
2022-12-17T00:09:53.527Z,8.87
2022-12-17T00:14:31.824Z,9.06
2022-12-17T00:19:07.423Z,7.94
2022-12-17T00:23:42.970Z,7.29
2022-12-17T00:28:19.208Z,8.83
2022-12-17T00:32:54.959Z,8.96
2022-12-17T00:37:30.538Z,7.58
2022-12-17T00:42:05.900Z,7.35
2022-12-17T00:46:41.574Z,7.24
2022-12-17T00:51:17.173Z,7.23
2022-12-17T00:55:52.728Z,7.10
2022-12-17T01:00:29.238Z,7.09
2022-12-17T01:05:05.345Z,7.00
2022-12-17T01:09:40.818Z,6.99
2022-12-17T01:14:16.487Z,6.96
2022-12-17T01:18:52.059Z,6.98
2022-12-17T01:23:28.066Z,6.95
2022-12-17T01:28:07.921Z,6.90
2022-12-17T01:32:43.535Z,6.90
2022-12-17T01:37:18.898Z,6.84
2022-12-17T01:41:55.129Z,6.89
2022-12-17T01:46:32.666Z,6.87
2022-12-17T01:51:15.330Z,6.78
2022-12-17T01:55:51.038Z,6.79
2022-12-17T02:00:31.361Z,6.83
2022-12-17T02:05:06.794Z,6.77
2022-12-17T02:10:01.781Z,6.80
2022-12-17T02:14:37.125Z,6.75
2022-12-17T02:19:24.831Z,6.78
2022-12-17T02:24:25.500Z,6.70
2022-12-17T02:29:07.367Z,6.72
2022-12-17T02:33:43.623Z,7.40
2022-12-17T02:38:18.983Z,8.62
2022-12-17T02:42:55.530Z,8.68
2022-12-17T02:47:32.849Z,8.82
2022-12-17T02:52:09.455Z,8.68
2022-12-17T02:56:44.834Z,8.93
2022-12-17T03:01:21.036Z,8.86
2022-12-17T03:05:56.929Z,8.85
2022-12-17T03:10:32.697Z,8.77
2022-12-17T03:15:08.317Z,9.10
2022-12-17T03:19:43.913Z,9.04
2022-12-17T03:24:19.386Z,8.92
2022-12-17T03:28:54.956Z,8.98
2022-12-17T03:33:30.570Z,9.04
2022-12-17T03:38:06.190Z,8.79
2022-12-17T03:42:41.572Z,8.77
2022-12-17T03:47:17.236Z,8.74
2022-12-17T03:51:53.029Z,8.38
2022-12-17T03:56:28.504Z,8.48
2022-12-17T04:01:04.118Z,8.63
2022-12-17T04:23:20.815Z,9.27
2022-12-17T04:27:56.634Z,8.94
2022-12-17T04:32:35.376Z,8.97
2022-12-17T04:37:11.360Z,9.15
2022-12-17T04:41:47.616Z,8.88
2022-12-17T04:46:23.181Z,7.69
2022-12-17T04:50:59.044Z,7.27
2022-12-17T04:55:34.733Z,7.13
2022-12-17T05:00:10.382Z,8.94
2022-12-17T05:04:45.975Z,8.62
2022-12-17T05:09:22.075Z,7.48
2022-12-17T05:13:57.704Z,7.24
2022-12-17T05:18:33.605Z,7.17
2022-12-17T05:23:09.187Z,7.12
2022-12-17T05:27:45.013Z,7.13
2022-12-17T05:32:20.416Z,7.01
2022-12-17T05:36:56.244Z,7.08
2022-12-17T05:41:31.962Z,7.00
2022-12-17T05:46:08.979Z,6.93
2022-12-17T05:50:44.770Z,6.97
2022-12-17T05:55:20.455Z,6.90
2022-12-17T05:59:56.031Z,6.87
2022-12-17T06:04:32.011Z,6.85
2022-12-17T06:09:07.430Z,6.87
2022-12-17T06:13:44.457Z,6.80
2022-12-17T06:18:20.097Z,6.79
2022-12-17T06:22:55.806Z,6.77
2022-12-17T06:27:31.477Z,6.82
2022-12-17T06:32:07.326Z,6.80
2022-12-17T06:36:42.964Z,6.84
2022-12-17T06:41:27.126Z,6.79
2022-12-17T06:46:02.779Z,6.74
2022-12-17T06:50:38.747Z,6.71
2022-12-17T06:55:14.608Z,6.72
2022-12-17T06:59:50.322Z,7.28
2022-12-17T07:04:26.342Z,8.48
2022-12-17T07:09:01.887Z,8.73
2022-12-17T07:13:37.983Z,8.98
2022-12-17T07:18:19.795Z,8.92
2022-12-17T07:22:55.632Z,8.83
2022-12-17T07:27:31.376Z,9.06
2022-12-17T07:32:17.574Z,8.61
2022-12-17T07:36:53.591Z,8.86
2022-12-17T07:41:29.346Z,9.16
2022-12-17T07:46:05.243Z,8.77
2022-12-17T07:50:40.775Z,8.73
2022-12-17T07:55:18.399Z,9.09
2022-12-17T07:59:54.106Z,8.82
2022-12-17T08:04:30.206Z,8.54
2022-12-17T08:09:05.921Z,8.49
2022-12-17T08:13:41.715Z,8.86
2022-12-17T08:18:26.781Z,8.79
2022-12-17T08:23:02.722Z,8.57
2022-12-17T08:27:38.407Z,8.67
2022-12-17T08:32:14.020Z,7.63
2022-12-17T08:36:49.849Z,7.33
2022-12-17T08:41:25.473Z,8.48
2022-12-17T08:46:09.765Z,9.31
2022-12-17T08:50:45.473Z,9.37
2022-12-17T08:55:21.256Z,9.42
2022-12-17T08:59:56.822Z,9.44
2022-12-17T09:04:32.633Z,9.51
2022-12-17T09:09:08.323Z,9.80
2022-12-17T09:13:44.060Z,10.07
2022-12-17T09:18:19.771Z,10.42
2022-12-17T09:22:55.691Z,10.66
2022-12-17T09:27:31.497Z,10.65
2022-12-17T09:32:07.321Z,10.86
2022-12-17T09:36:48.039Z,10.71
2022-12-17T09:41:48.409Z,10.15
2022-12-17T09:46:52.101Z,10.55
2022-12-17T09:51:49.360Z,10.27
2022-12-17T09:56:28.690Z,9.73
2022-12-17T10:01:04.803Z,10.25
2022-12-17T10:05:45.627Z,11.20
2022-12-17T10:10:43.837Z,10.77
2022-12-17T10:15:20.008Z,10.46
2022-12-17T10:20:00.905Z,10.40
2022-12-17T10:24:37.083Z,10.36
2022-12-17T10:29:28.220Z,10.40
2022-12-17T10:34:04.638Z,10.29
2022-12-17T10:38:44.578Z,10.60
2022-12-17T10:43:20.136Z,11.18
2022-12-17T10:48:03.170Z,11.18
2022-12-17T10:52:50.742Z,10.51
2022-12-17T10:57:27.714Z,9.99
2022-12-17T11:02:03.217Z,10.91
2022-12-17T11:06:49.935Z,11.27
2022-12-17T11:11:31.191Z,10.98
2022-12-17T11:16:13.356Z,10.37
2022-12-17T11:21:33.921Z,10.74
2022-12-17T11:26:25.221Z,11.41
2022-12-17T11:31:13.374Z,11.19
2022-12-17T11:36:11.245Z,11.33
2022-12-17T11:40:57.420Z,11.50
2022-12-17T11:45:52.544Z,11.50
2022-12-17T11:51:11.174Z,10.95
2022-12-17T11:56:19.516Z,10.21
2022-12-17T12:01:20.774Z,10.22
2022-12-17T12:06:12.462Z,11.49
2022-12-17T12:11:09.315Z,11.02
2022-12-17T12:16:18.727Z,10.43
2022-12-17T12:21:24.594Z,10.33
2022-12-17T12:26:32.797Z,11.48
2022-12-17T12:31:19.924Z,11.76
2022-12-17T12:35:57.144Z,12.33
2022-12-17T12:40:53.988Z,12.65
2022-12-17T12:45:49.935Z,10.78
2022-12-17T12:50:41.331Z,10.70
2022-12-17T12:55:17.082Z,12.44
2022-12-17T12:59:54.245Z,12.61
2022-12-17T13:04:53.556Z,12.82
2022-12-17T13:09:16.469Z,12.87
2022-12-17T13:13:56.319Z,12.22
2022-12-17T13:18:37.928Z,11.20
2022-12-17T13:23:09.358Z,10.19
2022-12-17T13:27:33.999Z,11.81
2022-12-17T13:32:20.785Z,12.56
2022-12-17T13:36:55.244Z,12.55
2022-12-17T13:41:27.760Z,12.37
2022-12-17T13:45:44.916Z,12.13
2022-12-17T13:50:35.655Z,12.44
2022-12-17T13:54:54.021Z,10.42
2022-12-17T13:59:24.213Z,10.52
2022-12-17T14:04:06.169Z,12.39
2022-12-17T14:08:29.397Z,12.74
2022-12-17T14:12:47.224Z,12.80
2022-12-17T14:17:04.822Z,12.90
2022-12-17T14:21:22.696Z,12.55
2022-12-17T14:25:42.978Z,12.34
2022-12-17T14:30:00.975Z,10.76
2022-12-17T14:34:18.071Z,10.86
2022-12-17T14:38:39.440Z,12.43
2022-12-17T14:43:01.724Z,12.80
2022-12-17T14:47:32.554Z,13.11
2022-12-17T14:51:50.483Z,12.92
2022-12-17T14:56:23.291Z,12.79
2022-12-17T15:00:51.042Z,12.32
2022-12-17T15:05:16.647Z,10.84
2022-12-17T15:09:38.163Z,10.43
2022-12-17T15:13:56.799Z,10.49
2022-12-17T15:18:14.613Z,12.10
2022-12-17T15:22:31.647Z,12.80
2022-12-17T15:26:49.476Z,13.04
2022-12-17T15:31:06.516Z,13.04
2022-12-17T15:35:23.830Z,12.95
2022-12-17T15:39:40.878Z,12.70
2022-12-17T15:43:57.969Z,11.29
2022-12-17T15:48:21.736Z,10.64
2022-12-17T15:52:38.907Z,11.86
2022-12-17T15:56:56.687Z,12.82
2022-12-17T16:01:13.825Z,13.01
2022-12-17T16:05:31.189Z,13.05
2022-12-17T16:09:48.067Z,13.17
2022-12-17T16:14:05.105Z,13.05
2022-12-17T16:18:23.651Z,12.11
2022-12-17T16:22:40.708Z,10.59
2022-12-17T16:27:04.058Z,11.17
2022-12-17T16:31:21.651Z,12.53
2022-12-17T16:35:38.545Z,12.81
2022-12-17T16:39:59.936Z,12.89
2022-12-17T16:44:17.371Z,13.08
2022-12-17T16:48:39.287Z,13.01
2022-12-17T16:52:56.545Z,12.26
2022-12-17T16:57:13.607Z,10.68
2022-12-17T17:01:32.127Z,10.83
2022-12-17T17:05:49.696Z,12.40
2022-12-17T17:10:07.064Z,12.80
2022-12-17T17:14:24.792Z,12.93
2022-12-17T17:18:42.184Z,13.04
2022-12-17T17:22:59.948Z,12.94
2022-12-17T17:27:16.817Z,12.98
2022-12-17T17:32:08.356Z,10.78
2022-12-17T17:36:32.608Z,10.46
2022-12-17T17:40:56.287Z,12.24
2022-12-17T17:45:13.243Z,12.73
2022-12-17T17:49:30.581Z,12.93
2022-12-17T17:53:50.199Z,13.07
2022-12-17T17:58:07.788Z,13.01
2022-12-17T18:02:24.781Z,13.06
2022-12-17T18:07:16.041Z,11.02
2022-12-17T18:11:23.962Z,10.32
2022-12-17T18:15:41.327Z,12.13
2022-12-17T18:19:58.540Z,12.76
2022-12-17T18:24:22.837Z,12.96
2022-12-17T18:28:41.282Z,13.09
2022-12-17T18:32:58.013Z,13.06
2022-12-17T18:37:15.194Z,13.18
2022-12-17T18:41:50.673Z,11.30
2022-12-17T18:46:08.085Z,10.38
2022-12-17T18:50:24.991Z,12.14
2022-12-17T18:54:42.187Z,12.76
2022-12-17T18:58:59.878Z,12.91
2022-12-17T19:03:16.797Z,12.93
2022-12-17T19:07:34.150Z,13.05
2022-12-17T19:11:52.414Z,12.90
2022-12-17T19:16:19.398Z,11.18
2022-12-17T19:20:36.317Z,10.50
2022-12-17T19:24:53.425Z,11.93
2022-12-17T19:29:13.016Z,12.63
2022-12-17T19:33:30.254Z,12.85
2022-12-17T19:37:47.187Z,13.01
2022-12-17T19:42:04.477Z,13.18
2022-12-17T19:46:21.891Z,12.88
2022-12-17T19:50:39.124Z,11.63
2022-12-17T19:54:55.965Z,10.52
2022-12-17T19:59:14.379Z,11.22
2022-12-17T20:03:31.226Z,12.47
2022-12-17T20:07:49.968Z,12.87
2022-12-17T20:12:07.032Z,13.05
2022-12-17T20:16:24.341Z,13.17
2022-12-17T20:20:41.243Z,12.94
2022-12-17T20:24:58.917Z,12.55
2022-12-17T20:29:15.962Z,10.92
2022-12-17T20:33:33.508Z,11.01
2022-12-17T20:37:50.371Z,12.44
2022-12-17T20:42:07.808Z,12.98
2022-12-17T20:46:25.687Z,13.08
2022-12-17T20:50:43.766Z,13.23
2022-12-17T20:55:00.640Z,13.20
2022-12-17T20:59:19.358Z,13.21
2022-12-17T21:03:36.860Z,11.16
2022-12-17T21:07:54.342Z,10.79
2022-12-17T21:12:13.530Z,12.40
2022-12-17T21:16:31.990Z,12.85
2022-12-17T21:20:59.061Z,13.14
2022-12-17T21:25:16.406Z,13.35
2022-12-17T21:29:33.362Z,13.27
2022-12-17T21:33:54.060Z,13.34
2022-12-17T21:38:11.291Z,11.67
2022-12-17T21:42:47.290Z,10.58
2022-12-17T21:47:05.085Z,12.35
2022-12-17T21:51:22.474Z,13.03
2022-12-17T21:55:39.735Z,13.25
2022-12-17T21:59:57.176Z,13.28
2022-12-17T22:04:14.220Z,13.39
2022-12-17T22:08:32.970Z,13.37
2022-12-17T22:13:09.655Z,13.45
2022-12-17T22:17:26.767Z,11.51
2022-12-17T22:21:44.992Z,10.81
2022-12-17T22:26:02.112Z,12.13
2022-12-17T22:30:37.972Z,12.97
2022-12-17T22:36:18.061Z,13.27
2022-12-17T22:44:29.444Z,13.32
2022-12-17T22:44:35.710Z,13.43
2022-12-17T22:48:47.194Z,13.50
2022-12-17T22:53:04.559Z,13.46
2022-12-17T22:57:35.730Z,11.61
2022-12-17T23:01:55.134Z,10.67
2022-12-17T23:06:17.694Z,12.43
2022-12-17T23:10:35.325Z,13.07
2022-12-17T23:14:52.221Z,13.25
2022-12-17T23:19:09.682Z,13.31
2022-12-17T23:23:26.646Z,13.48
2022-12-17T23:27:46.014Z,13.62
2022-12-17T23:32:03.096Z,13.48
2022-12-17T23:36:24.102Z,11.53
2022-12-17T23:40:41.026Z,11.00
2022-12-17T23:44:58.178Z,12.66
2022-12-17T23:49:15.060Z,13.27
2022-12-17T23:53:33.595Z,13.43
2022-12-17T23:57:50.610Z,13.59
